createdAt,value
2022-08-21T00:00:20.325Z,0.00
2022-08-21T00:05:43.517Z,0.00
2022-08-21T00:10:36.446Z,0.00
2022-08-21T00:15:36.333Z,0.00
2022-08-21T00:20:36.293Z,0.00
2022-08-21T00:25:36.233Z,0.00
2022-08-21T00:30:36.157Z,0.00
2022-08-21T00:35:36.085Z,0.00
2022-08-21T00:40:36.029Z,0.00
2022-08-21T00:45:35.982Z,0.00
2022-08-21T00:50:35.914Z,0.00
2022-08-21T00:55:35.836Z,0.00
2022-08-21T01:00:35.757Z,0.00
2022-08-21T01:05:35.698Z,0.00
2022-08-21T01:10:35.625Z,0.00
2022-08-21T01:15:35.594Z,0.00
2022-08-21T01:20:35.507Z,0.00
2022-08-21T01:25:35.427Z,0.00
2022-08-21T01:30:35.361Z,0.00
2022-08-21T01:35:35.329Z,0.00
2022-08-21T01:40:35.210Z,0.00
2022-08-21T01:45:35.183Z,0.00
2022-08-21T01:50:35.100Z,0.00
2022-08-21T01:55:35.031Z,0.00
2022-08-21T02:00:34.997Z,0.00
2022-08-21T02:05:34.913Z,0.00
2022-08-21T02:10:34.834Z,0.00
2022-08-21T02:15:34.774Z,0.00
2022-08-21T02:20:34.727Z,0.00
2022-08-21T02:25:34.646Z,0.00
2022-08-21T02:30:34.569Z,0.00
2022-08-21T02:35:34.510Z,0.00
2022-08-21T02:40:34.696Z,0.00
2022-08-21T02:45:34.365Z,0.00
2022-08-21T02:50:34.307Z,0.00
2022-08-21T02:55:34.235Z,0.00
2022-08-21T03:00:34.184Z,0.00
2022-08-21T03:05:34.103Z,0.00
2022-08-21T03:10:34.046Z,0.00
2022-08-21T03:15:33.983Z,0.00
2022-08-21T03:20:33.897Z,0.00
2022-08-21T03:25:40.489Z,0.00
2022-08-21T03:30:34.784Z,0.00
2022-08-21T03:35:33.703Z,0.00
2022-08-21T03:40:33.640Z,0.00
2022-08-21T03:45:33.565Z,0.00
2022-08-21T03:50:33.505Z,0.00
2022-08-21T03:55:33.435Z,0.00
2022-08-21T04:00:33.358Z,0.00
2022-08-21T04:05:33.323Z,4.00
2022-08-21T04:10:33.226Z,4.00
2022-08-21T04:15:33.183Z,8.00
2022-08-21T04:20:33.315Z,20.00
2022-08-21T04:25:33.081Z,36.00
2022-08-21T04:30:32.978Z,60.00
2022-08-21T04:35:32.914Z,88.00
2022-08-21T04:40:32.829Z,128.00
2022-08-21T04:45:32.767Z,168.00
2022-08-21T04:50:32.697Z,212.00
2022-08-21T04:55:32.649Z,256.00
2022-08-21T05:00:32.574Z,300.00
2022-08-21T05:05:32.513Z,348.00
2022-08-21T05:10:32.514Z,396.00
2022-08-21T05:15:32.383Z,444.00
2022-08-21T05:20:32.308Z,492.00
2022-08-21T05:25:32.247Z,544.00
2022-08-21T05:30:32.149Z,592.00
2022-08-21T05:35:32.099Z,636.00
2022-08-21T05:40:32.091Z,680.00
2022-08-21T05:45:42.229Z,728.00
2022-08-21T05:50:33.759Z,776.00
2022-08-21T05:55:33.965Z,812.00
2022-08-21T06:00:46.601Z,844.00
2022-08-21T06:05:39.498Z,880.00
2022-08-21T06:10:39.456Z,908.00
2022-08-21T06:15:39.369Z,948.00
2022-08-21T06:20:39.275Z,996.00
2022-08-21T06:25:39.206Z,1064.00
2022-08-21T06:30:39.149Z,1352.00
2022-08-21T06:35:41.575Z,2860.00
2022-08-21T06:40:43.847Z,3440.00
2022-08-21T06:45:39.996Z,3788.00
2022-08-21T06:50:38.892Z,4036.00
2022-08-21T06:55:38.836Z,4168.00
2022-08-21T07:00:38.835Z,4280.00
2022-08-21T07:05:38.698Z,4356.00
2022-08-21T07:10:38.718Z,4432.00
2022-08-21T07:15:38.566Z,4500.00
2022-08-21T07:20:38.501Z,4584.00
2022-08-21T07:25:38.465Z,4628.00
2022-08-21T07:30:38.396Z,4644.00
2022-08-21T07:35:39.287Z,4728.00
2022-08-21T07:40:38.249Z,4852.00
2022-08-21T07:45:38.177Z,4972.00
2022-08-21T07:50:38.150Z,5048.00
2022-08-21T07:55:38.034Z,5192.00
2022-08-21T08:00:38.031Z,5332.00
2022-08-21T08:05:37.919Z,5560.00
2022-08-21T08:10:37.866Z,5640.00
2022-08-21T08:15:37.834Z,5836.00
2022-08-21T08:20:37.729Z,5972.00
2022-08-21T08:25:38.467Z,6328.00
2022-08-21T08:30:37.598Z,6800.00
2022-08-21T08:35:39.053Z,6808.00
2022-08-21T08:41:06.305Z,6820.00
2022-08-21T08:45:59.243Z,6724.00
2022-08-21T08:50:59.217Z,6784.00
2022-08-21T08:55:59.167Z,6948.00
2022-08-21T09:00:59.088Z,7044.00
2022-08-21T09:05:58.995Z,7216.00
2022-08-21T09:10:58.934Z,7484.00
2022-08-21T09:15:58.942Z,7640.00
2022-08-21T09:20:58.780Z,7712.00
2022-08-21T09:25:58.736Z,7572.00
2022-08-21T09:30:58.730Z,7644.00
2022-08-21T09:35:59.597Z,8036.00
2022-08-21T09:40:58.716Z,6200.00
2022-08-21T09:45:58.550Z,9056.00
2022-08-21T09:50:58.409Z,9616.00
2022-08-21T09:55:58.862Z,9384.00
2022-08-21T10:00:58.360Z,9364.00
2022-08-21T10:05:58.267Z,9356.00
2022-08-21T10:10:58.157Z,9620.00
2022-08-21T10:15:58.104Z,10248.00
2022-08-21T10:20:58.056Z,10656.00
2022-08-21T10:26:13.532Z,10052.00
2022-08-21T10:30:58.936Z,10180.00
2022-08-21T10:35:57.850Z,10544.00
2022-08-21T10:40:57.789Z,10324.00
2022-08-21T10:45:58.982Z,11200.00
2022-08-21T10:50:57.688Z,11872.00
2022-08-21T10:55:57.604Z,16192.00
2022-08-21T11:00:57.593Z,19488.00
2022-08-21T11:05:57.476Z,24256.00
2022-08-21T11:10:59.391Z,23648.00
2022-08-21T11:15:57.353Z,23520.00
2022-08-21T11:20:57.360Z,23072.00
2022-08-21T11:25:59.092Z,19520.00
2022-08-21T11:30:57.190Z,21024.00
2022-08-21T11:35:57.112Z,22304.00
2022-08-21T11:40:57.041Z,16704.00
2022-08-21T11:45:56.988Z,14816.00
2022-08-21T11:50:56.905Z,14272.00
2022-08-21T11:55:56.879Z,14560.00
2022-08-21T12:00:57.082Z,3740.00
2022-08-21T12:05:56.720Z,13632.00
2022-08-21T12:10:56.659Z,13600.00
2022-08-21T12:15:56.596Z,9068.00
2022-08-21T12:20:56.527Z,7640.00
2022-08-21T12:25:56.466Z,7308.00
2022-08-21T12:30:58.191Z,6748.00
2022-08-21T12:35:56.331Z,6352.00
2022-08-21T12:40:56.278Z,6304.00
2022-08-21T12:45:56.219Z,6216.00
2022-08-21T12:50:56.175Z,6032.00
2022-08-21T12:55:56.108Z,5772.00
2022-08-21T13:00:56.062Z,5712.00
2022-08-21T13:05:56.026Z,5284.00
2022-08-21T13:10:55.916Z,5000.00
2022-08-21T13:15:55.839Z,4808.00
2022-08-21T13:20:55.808Z,4652.00
2022-08-21T13:25:55.768Z,4704.00
2022-08-21T13:30:55.670Z,4484.00
2022-08-21T13:35:55.580Z,3548.00
2022-08-21T13:40:55.534Z,4228.00
2022-08-21T13:45:55.443Z,4036.00
2022-08-21T13:50:55.517Z,3920.00
2022-08-21T13:56:00.405Z,3712.00
2022-08-21T14:00:55.260Z,2528.00
2022-08-21T14:05:55.188Z,1556.00
2022-08-21T14:10:57.579Z,1744.00
2022-08-21T14:15:55.052Z,1692.00
2022-08-21T14:20:55.009Z,1628.00
2022-08-21T14:25:54.945Z,1388.00
2022-08-21T14:30:54.871Z,1420.00
2022-08-21T14:35:54.792Z,2484.00
2022-08-21T14:40:54.740Z,2540.00
2022-08-21T14:45:54.674Z,2476.00
2022-08-21T14:50:59.789Z,2328.00
2022-08-21T14:55:55.639Z,2176.00
2022-08-21T15:00:54.490Z,2076.00
2022-08-21T15:05:54.418Z,1664.00
2022-08-21T15:11:11.138Z,1252.00
2022-08-21T15:15:55.315Z,1468.00
2022-08-21T15:20:54.422Z,1300.00
2022-08-21T15:25:54.160Z,1156.00
2022-08-21T15:30:54.104Z,1436.00
2022-08-21T15:35:54.047Z,1272.00
2022-08-21T15:40:54.104Z,1316.00
2022-08-21T15:45:53.955Z,1540.00
2022-08-21T15:50:53.858Z,1564.00
2022-08-21T15:55:53.858Z,1508.00
2022-08-21T16:00:53.726Z,1512.00
2022-08-21T16:05:53.719Z,1556.00
2022-08-21T16:10:53.632Z,1504.00
2022-08-21T16:15:53.674Z,1472.00
2022-08-21T16:20:53.453Z,1436.00
2022-08-21T16:25:53.468Z,1456.00
2022-08-21T16:30:53.380Z,1444.00
2022-08-21T16:35:53.288Z,1388.00
2022-08-21T16:40:53.205Z,1284.00
2022-08-21T16:45:53.123Z,1172.00
2022-08-21T16:50:53.102Z,1064.00
2022-08-21T16:55:53.142Z,944.00
2022-08-21T17:00:53.042Z,856.00
2022-08-21T17:05:52.856Z,776.00
2022-08-21T17:10:52.818Z,700.00
2022-08-21T17:15:52.727Z,636.00
2022-08-21T17:20:52.679Z,588.00
2022-08-21T17:25:52.627Z,572.00
2022-08-21T17:30:52.531Z,592.00
2022-08-21T17:35:52.462Z,628.00
2022-08-21T17:40:52.403Z,636.00
2022-08-21T17:45:52.330Z,576.00
2022-08-21T17:50:52.314Z,488.00
2022-08-21T17:56:01.090Z,392.00
2022-08-21T18:00:54.072Z,300.00
2022-08-21T18:05:53.953Z,216.00
2022-08-21T18:10:53.959Z,156.00
2022-08-21T18:15:53.823Z,108.00
2022-08-21T18:20:53.799Z,80.00
2022-08-21T18:25:53.712Z,56.00
2022-08-21T18:30:53.665Z,40.00
2022-08-21T18:35:53.577Z,28.00
2022-08-21T18:40:55.994Z,16.00
2022-08-21T18:45:53.435Z,8.00
2022-08-21T18:50:53.394Z,4.00
2022-08-21T18:55:53.303Z,4.00
2022-08-21T19:00:53.274Z,0.00
2022-08-21T19:05:53.156Z,0.00
2022-08-21T19:10:53.104Z,0.00
2022-08-21T19:15:53.114Z,0.00
2022-08-21T19:20:52.950Z,0.00
2022-08-21T19:25:53.168Z,0.00
2022-08-21T19:30:52.844Z,0.00
2022-08-21T19:35:52.877Z,0.00
2022-08-21T19:40:52.705Z,0.00
2022-08-21T19:45:52.641Z,0.00
2022-08-21T19:50:52.556Z,0.00
2022-08-21T19:55:52.487Z,0.00
2022-08-21T20:00:52.503Z,0.00
2022-08-21T20:05:54.073Z,0.00
2022-08-21T20:10:52.294Z,0.00
2022-08-21T20:15:52.207Z,0.00
2022-08-21T20:20:52.528Z,0.00
2022-08-21T20:25:52.123Z,0.00
2022-08-21T20:30:52.050Z,0.00
2022-08-21T20:35:52.046Z,0.00
2022-08-21T20:40:51.957Z,0.00
2022-08-21T20:45:51.878Z,0.00
2022-08-21T20:50:51.761Z,0.00
2022-08-21T20:55:51.690Z,0.00
2022-08-21T21:00:51.908Z,0.00
2022-08-21T21:05:51.575Z,0.00
2022-08-21T21:10:51.546Z,0.00
2022-08-21T21:15:51.588Z,0.00
2022-08-21T21:20:51.381Z,0.00
2022-08-21T21:25:53.901Z,0.00
2022-08-21T21:30:55.610Z,0.00
2022-08-21T21:35:52.204Z,0.00
2022-08-21T21:40:51.140Z,0.00
2022-08-21T21:45:51.036Z,0.00
2022-08-21T21:50:50.995Z,0.00
2022-08-21T21:55:50.906Z,0.00
2022-08-21T22:00:52.189Z,0.00
2022-08-21T22:05:50.777Z,0.00
2022-08-21T22:10:50.705Z,0.00
2022-08-21T22:15:50.638Z,0.00
2022-08-21T22:20:50.564Z,0.00
2022-08-21T22:25:50.512Z,0.00
2022-08-21T22:31:18.072Z,0.00
2022-08-21T22:36:26.493Z,0.00
2022-08-21T22:41:18.947Z,0.00
2022-08-21T22:46:18.859Z,0.00
2022-08-21T22:51:18.800Z,0.00
2022-08-21T22:56:18.705Z,0.00
2022-08-21T23:01:18.628Z,0.00
2022-08-21T23:06:18.568Z,0.00
2022-08-21T23:11:19.205Z,0.00
2022-08-21T23:16:18.431Z,0.00
2022-08-21T23:21:18.429Z,0.00
2022-08-21T23:26:18.315Z,0.00
2022-08-21T23:31:18.243Z,0.00
2022-08-21T23:36:18.177Z,0.00
2022-08-21T23:41:20.037Z,0.00
2022-08-21T23:46:19.072Z,0.00
2022-08-21T23:51:18.992Z,0.00
2022-08-21T23:56:17.923Z,0.00
